createdAt,value
2018-11-26T00:00:36.107Z,26.53
2018-11-26T00:05:54.768Z,27.47
2018-11-26T00:11:24.559Z,27.27
2018-11-26T00:16:43.294Z,24.90
2018-11-26T00:22:01.882Z,25.53
2018-11-26T00:27:20.480Z,26.03
2018-11-26T00:32:39.039Z,26.70
2018-11-26T00:37:57.684Z,25.87
2018-11-26T00:43:16.228Z,26.57
2018-11-26T00:48:34.749Z,26.93
2018-11-26T00:53:53.300Z,26.40
2018-11-26T00:59:11.961Z,26.10
2018-11-26T01:04:30.603Z,27.50
2018-11-26T01:09:49.207Z,27.10
2018-11-26T01:15:08.095Z,25.53
2018-11-26T01:20:26.749Z,26.90
2018-11-26T01:25:45.459Z,26.80
2018-11-26T01:31:03.948Z,26.23
2018-11-26T01:36:22.568Z,27.40
2018-11-26T01:41:41.123Z,26.57
2018-11-26T01:46:59.659Z,26.23
2018-11-26T01:52:18.190Z,27.10
2018-11-26T01:57:36.812Z,27.97
2018-11-26T02:02:55.537Z,27.40
2018-11-26T02:08:14.172Z,28.10
2018-11-26T02:13:32.727Z,27.93
2018-11-26T02:18:51.473Z,27.97
2018-11-26T02:24:09.983Z,28.55
2018-11-26T02:29:28.674Z,26.80
2018-11-26T02:34:47.297Z,27.40
2018-11-26T02:40:08.110Z,27.37
2018-11-26T02:45:27.064Z,26.53
2018-11-26T02:50:45.580Z,28.53
2018-11-26T02:56:04.111Z,26.13
2018-11-26T03:01:22.717Z,27.33
2018-11-26T03:06:41.240Z,28.80
2018-11-26T03:11:59.925Z,27.30
2018-11-26T03:17:18.472Z,26.80
2018-11-26T03:22:37.141Z,26.20
2018-11-26T03:27:55.796Z,26.07
2018-11-26T03:33:14.359Z,27.27
2018-11-26T03:38:44.479Z,27.80
2018-11-26T03:44:03.011Z,27.40
2018-11-26T03:49:21.587Z,26.77
2018-11-26T03:54:40.143Z,26.23
2018-11-26T03:59:58.728Z,26.80
2018-11-26T04:05:17.929Z,25.82
2018-11-26T04:10:36.463Z,24.90
2018-11-26T04:15:55.031Z,24.97
2018-11-26T04:21:13.541Z,27.17
2018-11-26T04:26:32.064Z,24.57
2018-11-26T04:31:50.640Z,27.17
2018-11-26T04:37:09.149Z,26.23
2018-11-26T04:42:27.666Z,25.23
2018-11-26T04:47:46.209Z,26.17
2018-11-26T04:53:04.872Z,27.47
2018-11-26T04:58:23.448Z,24.43
2018-11-26T05:03:42.006Z,23.83
2018-11-26T05:09:00.715Z,26.13
2018-11-26T05:14:19.252Z,25.43
2018-11-26T05:19:37.831Z,24.53
2018-11-26T05:24:56.365Z,24.00
2018-11-26T05:30:15.052Z,23.83
2018-11-26T05:35:33.827Z,24.27
2018-11-26T05:40:52.429Z,25.27
2018-11-26T05:46:11.138Z,24.80
2018-11-26T05:51:29.715Z,23.97
2018-11-26T05:56:48.225Z,22.27
2018-11-26T06:02:06.868Z,23.97
2018-11-26T06:07:25.468Z,22.87
2018-11-26T06:12:44.042Z,24.27
2018-11-26T06:18:02.579Z,22.80
2018-11-26T06:23:21.290Z,24.50
2018-11-26T06:28:39.943Z,22.87
2018-11-26T06:33:58.478Z,24.20
2018-11-26T06:39:17.043Z,23.07
2018-11-26T06:44:35.559Z,25.00
2018-11-26T06:49:54.228Z,24.27
2018-11-26T06:55:15.136Z,23.20
2018-11-26T07:00:33.739Z,23.63
2018-11-26T07:05:52.384Z,24.87
2018-11-26T07:11:10.943Z,23.63
2018-11-26T07:16:29.456Z,25.17
2018-11-26T07:21:47.968Z,23.97
2018-11-26T07:27:06.873Z,23.20
2018-11-26T07:32:25.389Z,22.57
2018-11-26T07:37:44.024Z,22.80
2018-11-26T07:43:09.947Z,22.20
2018-11-26T07:48:28.629Z,24.50
2018-11-26T07:53:47.220Z,24.12
2018-11-26T07:59:05.764Z,24.60
2018-11-26T08:04:24.307Z,24.47
2018-11-26T08:09:42.823Z,24.33
2018-11-26T08:15:01.393Z,24.53
2018-11-26T08:20:19.964Z,25.08
2018-11-26T08:25:38.700Z,25.57
2018-11-26T08:30:57.299Z,24.93
2018-11-26T08:36:16.087Z,24.47
2018-11-26T08:41:36.713Z,25.03
2018-11-26T08:47:00.929Z,24.73
2018-11-26T08:52:20.413Z,25.50
2018-11-26T08:57:39.024Z,24.43
2018-11-26T09:03:04.007Z,24.40
2018-11-26T09:08:22.611Z,24.27
2018-11-26T09:13:41.300Z,23.93
2018-11-26T09:18:59.867Z,21.90
2018-11-26T09:24:18.376Z,22.73
2018-11-26T09:29:36.931Z,23.63
2018-11-26T09:34:55.483Z,22.47
2018-11-26T09:40:15.267Z,23.50
2018-11-26T09:45:40.089Z,21.00
2018-11-26T09:50:52.358Z,22.77
2018-11-26T09:56:10.940Z,21.90
2018-11-26T10:01:29.556Z,21.97
2018-11-26T10:06:48.075Z,23.70
2018-11-26T10:12:06.615Z,24.10
2018-11-26T10:17:25.208Z,23.23
2018-11-26T10:22:44.274Z,24.00
2018-11-26T10:28:02.945Z,22.87
2018-11-26T10:33:21.527Z,24.43
2018-11-26T10:38:40.116Z,24.77
2018-11-26T10:43:58.690Z,24.77
2018-11-26T10:49:17.181Z,25.60
2018-11-26T10:54:35.812Z,24.53
2018-11-26T10:59:54.427Z,24.13
2018-11-26T11:05:12.991Z,24.55
2018-11-26T11:10:32.873Z,23.50
2018-11-26T11:15:51.457Z,25.10
2018-11-26T11:21:09.989Z,24.43
2018-11-26T11:26:28.552Z,23.37
2018-11-26T11:31:47.145Z,23.83
2018-11-26T11:37:05.823Z,24.30
2018-11-26T11:42:24.364Z,22.27
2018-11-26T11:47:42.967Z,24.27
2018-11-26T11:53:01.481Z,24.37
2018-11-26T11:58:20.014Z,24.53
2018-11-26T12:03:38.594Z,26.57
2018-11-26T12:08:57.409Z,25.10
2018-11-26T12:14:17.250Z,23.50
2018-11-26T12:19:35.921Z,25.27
2018-11-26T12:24:54.524Z,25.43
2018-11-26T12:30:15.557Z,24.82
2018-11-26T12:35:34.384Z,25.93
2018-11-26T12:40:52.872Z,24.18
2018-11-26T12:46:11.475Z,22.93
2018-11-26T12:51:29.984Z,23.50
2018-11-26T12:56:48.581Z,23.10
2018-11-26T13:02:07.546Z,24.50
2018-11-26T13:07:26.113Z,23.50
2018-11-26T13:12:45.078Z,24.83
2018-11-26T13:18:03.680Z,23.00
2018-11-26T13:23:22.235Z,23.98
2018-11-26T13:28:40.784Z,22.70
2018-11-26T13:33:59.353Z,22.67
2018-11-26T13:39:18.026Z,20.93
2018-11-26T13:44:36.614Z,23.30
2018-11-26T13:49:55.168Z,22.53
2018-11-26T13:55:13.736Z,22.60
2018-11-26T14:00:32.423Z,22.20
2018-11-26T14:05:51.142Z,23.47
2018-11-26T14:11:09.786Z,22.87
2018-11-26T14:16:28.378Z,23.37
2018-11-26T14:21:47.195Z,23.65
2018-11-26T14:27:06.250Z,24.80
2018-11-26T14:32:24.815Z,24.37
2018-11-26T14:37:43.507Z,24.83
2018-11-26T14:43:02.047Z,26.12
2018-11-26T14:48:20.560Z,25.97
2018-11-26T14:53:39.115Z,24.53
2018-11-26T14:58:57.879Z,24.17
2018-11-26T15:04:16.766Z,25.27
2018-11-26T15:09:35.375Z,26.17
2018-11-26T15:14:53.958Z,25.57
2018-11-26T15:20:14.099Z,23.55
2018-11-26T15:25:34.321Z,25.47
2018-11-26T15:30:53.226Z,25.65
2018-11-26T15:36:11.822Z,29.53
2018-11-26T15:41:30.373Z,29.30
2018-11-26T15:46:48.965Z,27.60
2018-11-26T15:52:07.537Z,29.63
2018-11-26T15:57:26.117Z,27.57
2018-11-26T16:02:44.797Z,28.57
2018-11-26T16:08:05.426Z,27.03
2018-11-26T16:13:24.068Z,30.10
2018-11-26T16:18:42.614Z,28.13
2018-11-26T16:24:01.195Z,27.37
2018-11-26T16:29:19.769Z,26.85
2018-11-26T16:34:38.362Z,27.63
2018-11-26T16:39:56.936Z,29.00
2018-11-26T16:45:17.960Z,27.82
2018-11-26T16:50:37.384Z,27.33
2018-11-26T16:55:56.013Z,26.27
2018-11-26T17:01:14.632Z,26.67
2018-11-26T17:06:33.190Z,26.73
2018-11-26T17:11:51.751Z,28.20
2018-11-26T17:17:10.334Z,27.67
2018-11-26T17:22:28.923Z,29.10
2018-11-26T17:27:47.726Z,26.77
2018-11-26T17:33:08.166Z,27.47
2018-11-26T17:38:26.723Z,26.27
2018-11-26T17:43:45.219Z,28.77
2018-11-26T17:49:03.774Z,26.93
2018-11-26T17:54:22.406Z,30.00
2018-11-26T17:59:41.440Z,28.57
2018-11-26T18:04:59.957Z,27.23
2018-11-26T18:10:19.648Z,26.10
2018-11-26T18:15:38.191Z,26.03
2018-11-26T18:20:56.736Z,24.73
2018-11-26T18:26:15.663Z,26.83
2018-11-26T18:31:35.068Z,26.27
2018-11-26T18:36:53.686Z,26.00
2018-11-26T18:42:12.335Z,24.60
2018-11-26T18:47:31.227Z,24.97
2018-11-26T18:52:50.522Z,24.67
2018-11-26T18:58:09.153Z,25.13
2018-11-26T19:03:27.714Z,25.53
2018-11-26T19:08:46.336Z,25.50
2018-11-26T19:14:12.014Z,24.17
2018-11-26T19:19:30.629Z,25.63
2018-11-26T19:24:49.214Z,23.40
2018-11-26T19:30:10.593Z,24.67
2018-11-26T19:35:29.081Z,24.70
2018-11-26T19:40:47.725Z,24.77
2018-11-26T19:46:06.829Z,22.97
2018-11-26T19:51:25.475Z,23.83
2018-11-26T19:56:44.058Z,23.37
2018-11-26T20:02:03.037Z,23.70
2018-11-26T20:07:21.784Z,24.27
2018-11-26T20:12:40.511Z,23.73
2018-11-26T20:17:59.257Z,23.03
2018-11-26T20:23:17.899Z,23.40
2018-11-26T20:28:36.446Z,22.97
2018-11-26T20:33:54.961Z,22.10
2018-11-26T20:39:13.513Z,22.73
2018-11-26T20:44:32.115Z,21.17
2018-11-26T20:49:50.731Z,23.57
2018-11-26T20:55:11.835Z,22.33
2018-11-26T21:00:30.415Z,22.50
2018-11-26T21:05:48.945Z,22.30
2018-11-26T21:11:07.633Z,22.67
2018-11-26T21:16:26.194Z,22.17
2018-11-26T21:21:44.846Z,22.07
2018-11-26T21:27:03.472Z,21.00
2018-11-26T21:32:22.091Z,20.50
2018-11-26T21:37:41.708Z,21.00
2018-11-26T21:43:00.688Z,20.97
2018-11-26T21:48:18.928Z,21.33
2018-11-26T21:53:37.723Z,21.03
2018-11-26T21:58:56.288Z,21.27
2018-11-26T22:04:14.934Z,21.43
2018-11-26T22:09:33.490Z,21.13
2018-11-26T22:14:51.987Z,19.63
2018-11-26T22:20:31.930Z,20.53
2018-11-26T22:25:50.487Z,21.63
2018-11-26T22:31:09.082Z,20.50
2018-11-26T22:36:27.574Z,19.87
2018-11-26T22:41:46.116Z,19.10
2018-11-26T22:47:04.692Z,21.13
2018-11-26T22:52:23.332Z,20.90
2018-11-26T22:57:42.293Z,19.87
2018-11-26T23:03:01.325Z,20.80
2018-11-26T23:08:19.850Z,20.53
2018-11-26T23:13:38.616Z,20.90
2018-11-26T23:18:57.129Z,20.70
2018-11-26T23:24:15.687Z,19.27
2018-11-26T23:29:34.520Z,20.70
2018-11-26T23:34:53.075Z,19.57
2018-11-26T23:40:12.681Z,20.33
2018-11-26T23:45:31.204Z,20.20
2018-11-26T23:50:49.806Z,19.40
2018-11-26T23:56:08.532Z,19.27
